sensor_id;sensor_type;location;lat;lon;timestamp;pressure;altitude;pressure_sealevel;temperature;humidity
17781;BME280;8498;52.516;13.790;2022-09-12T00:01:10;101202.81;;;15.59;76.79
17781;BME280;8498;52.516;13.790;2022-09-12T00:06:35;101196.97;;;15.54;76.95
17781;BME280;8498;52.516;13.790;2022-09-12T00:11:57;101192.94;;;15.48;76.70
17781;BME280;8498;52.516;13.790;2022-09-12T00:17:19;101187.13;;;15.43;76.95
17781;BME280;8498;52.516;13.790;2022-09-12T00:22:42;101184.09;;;15.36;76.68
17781;BME280;8498;52.516;13.790;2022-09-12T00:28:04;101181.88;;;15.30;76.86
17781;BME280;8498;52.516;13.790;2022-09-12T00:33:26;101178.00;;;15.23;76.67
17781;BME280;8498;52.516;13.790;2022-09-12T00:38:49;101184.56;;;15.19;77.19
17781;BME280;8498;52.516;13.790;2022-09-12T01:30:54;101180.63;;;14.67;76.76
17781;BME280;8498;52.516;13.790;2022-09-12T01:42:14;101181.13;;;14.61;76.82
17781;BME280;8498;52.516;13.790;2022-09-12T01:47:48;101177.94;;;14.56;76.70
17781;BME280;8498;52.516;13.790;2022-09-12T01:53:18;101168.56;;;14.51;77.05
17781;BME280;8498;52.516;13.790;2022-09-12T01:59:13;101167.09;;;14.47;76.95
17781;BME280;8498;52.516;13.790;2022-09-12T02:04:49;101167.72;;;14.50;77.59
17781;BME280;8498;52.516;13.790;2022-09-12T02:10:22;101176.06;;;14.46;77.67
17781;BME280;8498;52.516;13.790;2022-09-12T02:15:53;101166.59;;;14.42;77.29
17781;BME280;8498;52.516;13.790;2022-09-12T02:21:21;101175.28;;;14.32;77.52
17781;BME280;8498;52.516;13.790;2022-09-12T02:26:54;101174.88;;;14.26;77.53
17781;BME280;8498;52.516;13.790;2022-09-12T02:32:40;101178.06;;;14.31;77.42
17781;BME280;8498;52.516;13.790;2022-09-12T02:43:50;101166.97;;;14.24;77.82
17781;BME280;8498;52.516;13.790;2022-09-12T02:49:15;101169.53;;;14.26;77.97
17781;BME280;8498;52.516;13.790;2022-09-12T02:54:39;101185.34;;;14.29;78.12
17781;BME280;8498;52.516;13.790;2022-09-12T03:00:03;101176.97;;;14.33;78.33
17781;BME280;8498;52.516;13.790;2022-09-12T03:05:30;101178.25;;;14.41;78.46
17781;BME280;8498;52.516;13.790;2022-09-12T03:16:49;101179.72;;;14.45;78.86
17781;BME280;8498;52.516;13.790;2022-09-12T03:28:07;101170.88;;;14.55;79.44
17781;BME280;8498;52.516;13.790;2022-09-12T03:33:31;101177.44;;;14.51;79.38
17781;BME280;8498;52.516;13.790;2022-09-12T03:38:54;101172.31;;;14.48;80.01
17781;BME280;8498;52.516;13.790;2022-09-12T03:44:17;101167.50;;;14.53;79.76
17781;BME280;8498;52.516;13.790;2022-09-12T03:49:39;101166.63;;;14.53;79.43
17781;BME280;8498;52.516;13.790;2022-09-12T03:55:02;101173.66;;;14.43;79.20
17781;BME280;8498;52.516;13.790;2022-09-12T04:00:24;101170.53;;;14.36;79.13
17781;BME280;8498;52.516;13.790;2022-09-12T04:05:47;101172.72;;;14.31;79.03
17781;BME280;8498;52.516;13.790;2022-09-12T04:11:12;101168.09;;;14.22;78.47
17781;BME280;8498;52.516;13.790;2022-09-12T04:16:34;101170.25;;;14.17;78.58
17781;BME280;8498;52.516;13.790;2022-09-12T04:21:57;101179.00;;;14.19;78.38
17781;BME280;8498;52.516;13.790;2022-09-12T04:27:20;101179.44;;;14.13;78.22
17781;BME280;8498;52.516;13.790;2022-09-12T04:32:42;101179.81;;;14.08;78.43
17781;BME280;8498;52.516;13.790;2022-09-12T04:38:05;101184.19;;;14.09;78.40
17781;BME280;8498;52.516;13.790;2022-09-12T04:43:27;101184.97;;;13.99;78.13
17781;BME280;8498;52.516;13.790;2022-09-12T04:48:50;101183.16;;;13.99;78.56
17781;BME280;8498;52.516;13.790;2022-09-12T04:54:19;101184.22;;;13.96;78.94
17781;BME280;8498;52.516;13.790;2022-09-12T04:59:41;101192.03;;;14.00;79.70
17781;BME280;8498;52.516;13.790;2022-09-12T05:05:04;101191.06;;;14.01;79.43
17781;BME280;8498;52.516;13.790;2022-09-12T05:10:26;101193.97;;;13.98;79.23
17781;BME280;8498;52.516;13.790;2022-09-12T05:15:56;101190.22;;;14.00;79.01
17781;BME280;8498;52.516;13.790;2022-09-12T05:21:20;101188.88;;;14.06;79.05
17781;BME280;8498;52.516;13.790;2022-09-12T05:26:44;101193.78;;;14.12;79.67
17781;BME280;8498;52.516;13.790;2022-09-12T05:32:06;101204.66;;;14.21;79.46
17781;BME280;8498;52.516;13.790;2022-09-12T05:37:30;101212.06;;;14.29;81.20
17781;BME280;8498;52.516;13.790;2022-09-12T05:42:52;101208.34;;;14.31;82.13
17781;BME280;8498;52.516;13.790;2022-09-12T05:48:15;101221.34;;;14.36;82.71
17781;BME280;8498;52.516;13.790;2022-09-12T05:53:39;101219.91;;;14.43;83.09
17781;BME280;8498;52.516;13.790;2022-09-12T05:59:13;101233.59;;;14.51;83.26
17781;BME280;8498;52.516;13.790;2022-09-12T06:04:36;101229.25;;;14.61;83.39
17781;BME280;8498;52.516;13.790;2022-09-12T06:09:58;101227.31;;;14.75;83.47
17781;BME280;8498;52.516;13.790;2022-09-12T06:15:21;101232.47;;;14.89;83.24
17781;BME280;8498;52.516;13.790;2022-09-12T06:20:43;101232.69;;;14.86;83.97
17781;BME280;8498;52.516;13.790;2022-09-12T06:26:08;101236.88;;;15.01;84.33
17781;BME280;8498;52.516;13.790;2022-09-12T06:31:35;101238.09;;;15.08;84.75
17781;BME280;8498;52.516;13.790;2022-09-12T06:36:57;101231.03;;;15.07;85.41
17781;BME280;8498;52.516;13.790;2022-09-12T06:42:19;101238.94;;;15.09;87.44
17781;BME280;8498;52.516;13.790;2022-09-12T06:47:50;101234.94;;;15.14;86.75
17781;BME280;8498;52.516;13.790;2022-09-12T06:53:13;101237.38;;;15.28;86.40
17781;BME280;8498;52.516;13.790;2022-09-12T06:58:36;101239.31;;;15.37;87.35
17781;BME280;8498;52.516;13.790;2022-09-12T07:04:00;101247.34;;;15.37;88.35
17781;BME280;8498;52.516;13.790;2022-09-12T07:09:24;101257.63;;;15.55;87.75
17781;BME280;8498;52.516;13.790;2022-09-12T07:14:47;101241.44;;;15.67;86.91
17781;BME280;8498;52.516;13.790;2022-09-12T07:20:09;101242.13;;;15.81;84.47
17781;BME280;8498;52.516;13.790;2022-09-12T07:25:31;101244.53;;;15.95;86.87
17781;BME280;8498;52.516;13.790;2022-09-12T07:30:54;101249.75;;;16.07;87.54
17781;BME280;8498;52.516;13.790;2022-09-12T07:36:19;101245.34;;;16.18;88.51
17781;BME280;8498;52.516;13.790;2022-09-12T07:41:41;101250.56;;;16.19;90.20
17781;BME280;8498;52.516;13.790;2022-09-12T07:47:04;101246.75;;;16.22;92.14
17781;BME280;8498;52.516;13.790;2022-09-12T07:52:26;101246.41;;;16.26;92.73
17781;BME280;8498;52.516;13.790;2022-09-12T07:57:49;101238.75;;;16.42;91.92
17781;BME280;8498;52.516;13.790;2022-09-12T08:03:11;101244.69;;;16.57;92.02
17781;BME280;8498;52.516;13.790;2022-09-12T08:08:34;101245.09;;;16.73;91.39
17781;BME280;8498;52.516;13.790;2022-09-12T08:13:57;101239.19;;;16.91;90.89
17781;BME280;8498;52.516;13.790;2022-09-12T08:19:19;101238.69;;;17.06;89.97
17781;BME280;8498;52.516;13.790;2022-09-12T08:24:43;101238.91;;;17.24;89.83
17781;BME280;8498;52.516;13.790;2022-09-12T08:30:06;101232.09;;;17.41;88.99
17781;BME280;8498;52.516;13.790;2022-09-12T08:35:29;101228.19;;;17.54;86.16
17781;BME280;8498;52.516;13.790;2022-09-12T08:40:59;101237.03;;;17.76;85.65
17781;BME280;8498;52.516;13.790;2022-09-12T08:46:45;101241.44;;;17.86;85.40
17781;BME280;8498;52.516;13.790;2022-09-12T08:52:25;101241.19;;;17.99;83.28
17781;BME280;8498;52.516;13.790;2022-09-12T08:57:50;101242.78;;;18.30;84.37
17781;BME280;8498;52.516;13.790;2022-09-12T09:15:05;101241.81;;;18.89;80.82
17781;BME280;8498;52.516;13.790;2022-09-12T09:20:55;101238.81;;;18.92;77.38
17781;BME280;8498;52.516;13.790;2022-09-12T09:32:15;101234.19;;;19.22;74.14
17781;BME280;8498;52.516;13.790;2022-09-12T09:37:50;101224.13;;;19.70;73.79
17781;BME280;8498;52.516;13.790;2022-09-12T09:43:22;101223.09;;;19.99;72.35
17781;BME280;8498;52.516;13.790;2022-09-12T09:48:47;101227.00;;;19.87;71.89
17781;BME280;8498;52.516;13.790;2022-09-12T09:54:20;101224.25;;;19.69;71.81
17781;BME280;8498;52.516;13.790;2022-09-12T09:59:44;101216.53;;;19.56;71.03
17781;BME280;8498;52.516;13.790;2022-09-12T10:05:06;101213.38;;;20.06;69.65
17781;BME280;8498;52.516;13.790;2022-09-12T10:10:30;101210.47;;;20.17;70.09
17781;BME280;8498;52.516;13.790;2022-09-12T10:16:02;101212.31;;;20.16;69.60
17781;BME280;8498;52.516;13.790;2022-09-12T10:21:40;101210.94;;;20.66;66.65
17781;BME280;8498;52.516;13.790;2022-09-12T10:32:42;101207.97;;;20.77;61.61
17781;BME280;8498;52.516;13.790;2022-09-12T10:38:06;101209.50;;;20.54;62.89
17781;BME280;8498;52.516;13.790;2022-09-12T10:43:37;101207.22;;;20.67;63.55
17781;BME280;8498;52.516;13.790;2022-09-12T10:49:18;101202.94;;;21.68;61.50
17781;BME280;8498;52.516;13.790;2022-09-12T10:54:42;101191.50;;;21.90;62.10
17781;BME280;8498;52.516;13.790;2022-09-12T11:00:14;101200.41;;;21.66;62.11
17781;BME280;8498;52.516;13.790;2022-09-12T11:28:39;101171.50;;;23.76;55.91
17781;BME280;8498;52.516;13.790;2022-09-12T11:34:09;101166.44;;;23.96;53.95
17781;BME280;8498;52.516;13.790;2022-09-12T11:39:38;101175.13;;;23.91;52.75
17781;BME280;8498;52.516;13.790;2022-09-12T11:45:22;101170.69;;;24.44;51.67
17781;BME280;8498;52.516;13.790;2022-09-12T11:50:46;101165.00;;;23.85;52.30
17781;BME280;8498;52.516;13.790;2022-09-12T11:56:18;101172.97;;;23.56;53.12
17781;BME280;8498;52.516;13.790;2022-09-12T12:01:42;101161.66;;;23.28;53.99
17781;BME280;8498;52.516;13.790;2022-09-12T12:07:10;101155.41;;;23.35;53.61
17781;BME280;8498;52.516;13.790;2022-09-12T12:12:32;101156.69;;;23.87;51.95
17781;BME280;8498;52.516;13.790;2022-09-12T12:18:22;101148.56;;;23.78;48.56
17781;BME280;8498;52.516;13.790;2022-09-12T12:29:41;101139.72;;;24.30;47.60
17781;BME280;8498;52.516;13.790;2022-09-12T12:35:37;101125.84;;;24.48;47.93
17781;BME280;8498;52.516;13.790;2022-09-12T12:46:38;101124.41;;;24.14;49.35
17781;BME280;8498;52.516;13.790;2022-09-12T12:52:01;101127.53;;;24.03;50.47
17781;BME280;8498;52.516;13.790;2022-09-12T12:57:40;101122.19;;;24.18;48.50
17781;BME280;8498;52.516;13.790;2022-09-12T13:03:29;101123.34;;;24.24;50.08
17781;BME280;8498;52.516;13.790;2022-09-12T13:09:01;101114.34;;;24.23;47.76
17781;BME280;8498;52.516;13.790;2022-09-12T13:14:55;101104.44;;;24.30;48.30
17781;BME280;8498;52.516;13.790;2022-09-12T13:20:25;101107.16;;;24.07;47.10
17781;BME280;8498;52.516;13.790;2022-09-12T13:25:55;101102.38;;;24.32;47.26
17781;BME280;8498;52.516;13.790;2022-09-12T13:31:22;101106.44;;;24.51;46.81
17781;BME280;8498;52.516;13.790;2022-09-12T13:42:40;101091.84;;;24.52;47.27
17781;BME280;8498;52.516;13.790;2022-09-12T13:48:23;101083.19;;;24.34;46.32
17781;BME280;8498;52.516;13.790;2022-09-12T13:53:46;101081.25;;;24.42;45.93
17781;BME280;8498;52.516;13.790;2022-09-12T13:59:09;101084.66;;;24.22;45.58
17781;BME280;8498;52.516;13.790;2022-09-12T14:04:37;101080.31;;;24.12;46.01
17781;BME280;8498;52.516;13.790;2022-09-12T14:10:43;101077.50;;;24.21;46.53
17781;BME280;8498;52.516;13.790;2022-09-12T14:16:04;101080.94;;;24.23;47.25
17781;BME280;8498;52.516;13.790;2022-09-12T14:21:35;101080.47;;;24.34;47.52
17781;BME280;8498;52.516;13.790;2022-09-12T14:26:57;101068.72;;;24.19;47.36
17781;BME280;8498;52.516;13.790;2022-09-12T14:32:23;101070.38;;;24.28;48.42
17781;BME280;8498;52.516;13.790;2022-09-12T14:37:48;101067.41;;;24.14;47.05
17781;BME280;8498;52.516;13.790;2022-09-12T14:43:25;101061.31;;;24.12;47.73
17781;BME280;8498;52.516;13.790;2022-09-12T14:48:51;101064.09;;;24.04;48.25
17781;BME280;8498;52.516;13.790;2022-09-12T14:59:48;101062.16;;;23.90;48.75
17781;BME280;8498;52.516;13.790;2022-09-12T15:10:36;101051.09;;;23.77;49.68
17781;BME280;8498;52.516;13.790;2022-09-12T15:15:58;101048.19;;;23.78;50.42
17781;BME280;8498;52.516;13.790;2022-09-12T15:21:21;101050.88;;;23.78;51.23
17781;BME280;8498;52.516;13.790;2022-09-12T15:26:44;101055.19;;;23.73;50.90
17781;BME280;8498;52.516;13.790;2022-09-12T15:32:11;101049.81;;;23.65;52.22
17781;BME280;8498;52.516;13.790;2022-09-12T15:37:35;101045.16;;;23.51;53.42
17781;BME280;8498;52.516;13.790;2022-09-12T15:42:57;101042.78;;;23.48;52.61
17781;BME280;8498;52.516;13.790;2022-09-12T15:48:21;101039.28;;;23.39;54.16
17781;BME280;8498;52.516;13.790;2022-09-12T15:53:44;101037.13;;;23.34;54.02
17781;BME280;8498;52.516;13.790;2022-09-12T15:59:07;101040.22;;;23.23;56.63
17781;BME280;8498;52.516;13.790;2022-09-12T16:04:29;101038.25;;;23.09;58.02
17781;BME280;8498;52.516;13.790;2022-09-12T16:09:52;101036.28;;;22.95;58.77
17781;BME280;8498;52.516;13.790;2022-09-12T16:15:21;101032.09;;;22.92;58.06
17781;BME280;8498;52.516;13.790;2022-09-12T16:20:44;101021.13;;;22.78;59.35
17781;BME280;8498;52.516;13.790;2022-09-12T16:26:06;101013.69;;;22.63;60.24
17781;BME280;8498;52.516;13.790;2022-09-12T16:31:29;101013.25;;;22.52;61.23
17781;BME280;8498;52.516;13.790;2022-09-12T16:36:52;101011.91;;;22.40;62.06
17781;BME280;8498;52.516;13.790;2022-09-12T16:42:17;101003.97;;;22.22;62.29
17781;BME280;8498;52.516;13.790;2022-09-12T16:47:41;101006.72;;;22.06;63.50
17781;BME280;8498;52.516;13.790;2022-09-12T16:53:04;100997.94;;;21.87;64.26
17781;BME280;8498;52.516;13.790;2022-09-12T16:58:26;100993.50;;;21.70;65.14
17781;BME280;8498;52.516;13.790;2022-09-12T17:03:53;100991.50;;;21.56;65.89
17781;BME280;8498;52.516;13.790;2022-09-12T17:09:17;100982.03;;;21.44;66.80
17781;BME280;8498;52.516;13.790;2022-09-12T17:14:39;100980.66;;;21.32;67.08
17781;BME280;8498;52.516;13.790;2022-09-12T17:20:02;100973.88;;;21.19;67.91
17781;BME280;8498;52.516;13.790;2022-09-12T17:25:25;100971.97;;;21.04;67.98
17781;BME280;8498;52.516;13.790;2022-09-12T17:31:00;100967.88;;;20.92;68.53
17781;BME280;8498;52.516;13.790;2022-09-12T17:36:23;100968.69;;;20.76;69.29
17781;BME280;8498;52.516;13.790;2022-09-12T17:41:45;100973.00;;;20.61;69.55
17781;BME280;8498;52.516;13.790;2022-09-12T17:47:08;100964.84;;;20.44;69.69
17781;BME280;8498;52.516;13.790;2022-09-12T17:52:30;100965.25;;;20.32;70.45
17781;BME280;8498;52.516;13.790;2022-09-12T17:57:52;100968.91;;;20.23;70.40
17781;BME280;8498;52.516;13.790;2022-09-12T18:03:15;100976.03;;;20.06;70.57
17781;BME280;8498;52.516;13.790;2022-09-12T18:08:37;100981.00;;;19.93;70.86
17781;BME280;8498;52.516;13.790;2022-09-12T18:14:00;100986.66;;;19.82;71.35
17781;BME280;8498;52.516;13.790;2022-09-12T18:19:23;100984.06;;;19.72;72.15
17781;BME280;8498;52.516;13.790;2022-09-12T18:24:46;100993.22;;;19.61;72.77
17781;BME280;8498;52.516;13.790;2022-09-12T18:30:09;100979.84;;;19.52;73.19
17781;BME280;8498;52.516;13.790;2022-09-12T18:35:43;100987.28;;;19.40;73.68
17781;BME280;8498;52.516;13.790;2022-09-12T18:41:17;100991.19;;;19.28;74.21
17781;BME280;8498;52.516;13.790;2022-09-12T18:46:40;100983.63;;;19.14;74.55
17781;BME280;8498;52.516;13.790;2022-09-12T18:52:03;100989.94;;;19.04;74.72
17781;BME280;8498;52.516;13.790;2022-09-12T18:57:26;100976.97;;;18.90;74.97
17781;BME280;8498;52.516;13.790;2022-09-12T19:02:49;100981.03;;;18.77;75.32
17781;BME280;8498;52.516;13.790;2022-09-12T19:08:11;100979.25;;;18.67;75.57
17781;BME280;8498;52.516;13.790;2022-09-12T19:13:36;100965.84;;;18.58;75.83
17781;BME280;8498;52.516;13.790;2022-09-12T19:18:59;100957.59;;;18.50;76.20
17781;BME280;8498;52.516;13.790;2022-09-12T19:24:23;100959.50;;;18.40;76.15
17781;BME280;8498;52.516;13.790;2022-09-12T19:29:45;100953.88;;;18.33;76.81
17781;BME280;8498;52.516;13.790;2022-09-12T19:35:08;100957.16;;;18.27;76.54
17781;BME280;8498;52.516;13.790;2022-09-12T19:40:33;100945.88;;;18.14;76.74
17781;BME280;8498;52.516;13.790;2022-09-12T19:45:55;100946.44;;;18.08;76.70
17781;BME280;8498;52.516;13.790;2022-09-12T19:51:20;100943.94;;;17.96;76.79
17781;BME280;8498;52.516;13.790;2022-09-12T19:56:42;100935.22;;;17.85;76.84
17781;BME280;8498;52.516;13.790;2022-09-12T20:02:04;100933.38;;;17.76;77.07
17781;BME280;8498;52.516;13.790;2022-09-12T20:07:27;100920.53;;;17.70;77.14
17781;BME280;8498;52.516;13.790;2022-09-12T20:12:50;100920.25;;;17.63;77.03
17781;BME280;8498;52.516;13.790;2022-09-12T20:18:13;100922.63;;;17.56;77.15
17781;BME280;8498;52.516;13.790;2022-09-12T20:23:35;100919.81;;;17.48;77.01
17781;BME280;8498;52.516;13.790;2022-09-12T20:28:58;100916.00;;;17.41;76.73
17781;BME280;8498;52.516;13.790;2022-09-12T20:34:22;100911.50;;;17.32;76.96
17781;BME280;8498;52.516;13.790;2022-09-12T20:39:44;100913.03;;;17.15;77.68
17781;BME280;8498;52.516;13.790;2022-09-12T20:45:11;100907.66;;;17.06;77.66
17781;BME280;8498;52.516;13.790;2022-09-12T20:50:34;100905.69;;;16.98;77.80
17781;BME280;8498;52.516;13.790;2022-09-12T20:55:56;100894.69;;;16.92;77.48
17781;BME280;8498;52.516;13.790;2022-09-12T21:01:19;100900.19;;;16.80;77.94
17781;BME280;8498;52.516;13.790;2022-09-12T21:06:41;100904.38;;;16.73;77.90
17781;BME280;8498;52.516;13.790;2022-09-12T21:12:04;100902.41;;;16.66;78.26
17781;BME280;8498;52.516;13.790;2022-09-12T21:17:26;100901.81;;;16.62;78.19
17781;BME280;8498;52.516;13.790;2022-09-12T21:22:48;100898.94;;;16.54;78.48
17781;BME280;8498;52.516;13.790;2022-09-12T21:28:10;100886.81;;;16.50;78.40
17781;BME280;8498;52.516;13.790;2022-09-12T21:33:33;100894.41;;;16.45;78.73
17781;BME280;8498;52.516;13.790;2022-09-12T21:38:57;100895.53;;;16.42;78.74
17781;BME280;8498;52.516;13.790;2022-09-12T21:44:21;100890.59;;;16.38;78.67
17781;BME280;8498;52.516;13.790;2022-09-12T21:49:44;100886.72;;;16.31;78.78
17781;BME280;8498;52.516;13.790;2022-09-12T21:55:07;100878.25;;;16.26;78.95
17781;BME280;8498;52.516;13.790;2022-09-12T22:00:30;100881.34;;;16.21;79.30
17781;BME280;8498;52.516;13.790;2022-09-12T22:05:57;100864.69;;;16.18;79.12
17781;BME280;8498;52.516;13.790;2022-09-12T22:11:20;100859.34;;;16.18;79.43
17781;BME280;8498;52.516;13.790;2022-09-12T22:16:42;100862.16;;;16.16;79.87
17781;BME280;8498;52.516;13.790;2022-09-12T22:22:06;100859.00;;;16.11;79.86
17781;BME280;8498;52.516;13.790;2022-09-12T22:27:46;100852.81;;;16.10;79.72
17781;BME280;8498;52.516;13.790;2022-09-12T22:33:09;100843.22;;;16.08;79.55
17781;BME280;8498;52.516;13.790;2022-09-12T22:38:31;100837.88;;;16.08;80.02
17781;BME280;8498;52.516;13.790;2022-09-12T22:43:53;100829.25;;;16.04;80.13
17781;BME280;8498;52.516;13.790;2022-09-12T22:49:17;100831.91;;;16.04;80.21
17781;BME280;8498;52.516;13.790;2022-09-12T22:54:40;100813.84;;;15.97;80.27
17781;BME280;8498;52.516;13.790;2022-09-12T23:00:04;100805.09;;;15.95;80.41
17781;BME280;8498;52.516;13.790;2022-09-12T23:05:31;100797.31;;;15.92;80.37
17781;BME280;8498;52.516;13.790;2022-09-12T23:11:08;100793.91;;;15.90;80.50
17781;BME280;8498;52.516;13.790;2022-09-12T23:16:31;100776.88;;;15.91;80.93
17781;BME280;8498;52.516;13.790;2022-09-12T23:21:53;100768.97;;;15.89;80.90
17781;BME280;8498;52.516;13.790;2022-09-12T23:27:15;100766.47;;;15.97;80.88
17781;BME280;8498;52.516;13.790;2022-09-12T23:32:37;100767.44;;;15.96;81.38
17781;BME280;8498;52.516;13.790;2022-09-12T23:38:00;100759.97;;;16.00;81.36
17781;BME280;8498;52.516;13.790;2022-09-12T23:43:23;100764.22;;;16.02;80.90
17781;BME280;8498;52.516;13.790;2022-09-12T23:48:46;100765.03;;;15.93;81.05
17781;BME280;8498;52.516;13.790;2022-09-12T23:54:09;100758.53;;;15.86;80.85
17781;BME280;8498;52.516;13.790;2022-09-12T23:59:31;100752.72;;;15.81;81.41
